sensor_id;sensor_type;location;lat;lon;timestamp;pressure;altitude;pressure_sealevel;temperature;humidity
70976;BME280;58635;51.198;6.010;2022-10-31T00:01:51;101929.81;;;19.53;60.62
70976;BME280;58635;51.198;6.010;2022-10-31T00:04:17;101930.84;;;19.52;60.71
70976;BME280;58635;51.198;6.010;2022-10-31T00:06:42;101921.63;;;19.49;60.70
70976;BME280;58635;51.198;6.010;2022-10-31T00:09:09;101924.47;;;19.48;60.75
70976;BME280;58635;51.198;6.010;2022-10-31T00:11:34;101929.16;;;19.46;60.92
70976;BME280;58635;51.198;6.010;2022-10-31T00:14:00;101929.59;;;19.43;60.57
70976;BME280;58635;51.198;6.010;2022-10-31T00:16:27;101921.34;;;19.39;60.67
70976;BME280;58635;51.198;6.010;2022-10-31T00:18:55;101915.75;;;19.36;61.10
70976;BME280;58635;51.198;6.010;2022-10-31T00:21:21;101914.63;;;19.32;60.95
70976;BME280;58635;51.198;6.010;2022-10-31T00:23:47;101917.91;;;19.27;60.84
70976;BME280;58635;51.198;6.010;2022-10-31T00:26:13;101913.09;;;19.24;61.08
70976;BME280;58635;51.198;6.010;2022-10-31T00:28:38;101906.72;;;19.20;61.28
70976;BME280;58635;51.198;6.010;2022-10-31T00:31:06;101905.31;;;19.17;61.24
70976;BME280;58635;51.198;6.010;2022-10-31T00:33:36;101906.00;;;19.13;61.19
70976;BME280;58635;51.198;6.010;2022-10-31T00:36:04;101910.09;;;19.09;61.42
70976;BME280;58635;51.198;6.010;2022-10-31T00:38:29;101905.28;;;19.06;61.28
70976;BME280;58635;51.198;6.010;2022-10-31T00:40:55;101898.66;;;19.03;61.23
70976;BME280;58635;51.198;6.010;2022-10-31T00:43:21;101903.31;;;19.01;61.49
70976;BME280;58635;51.198;6.010;2022-10-31T00:45:46;101902.97;;;18.97;61.15
70976;BME280;58635;51.198;6.010;2022-10-31T00:48:11;101904.00;;;18.96;61.62
70976;BME280;58635;51.198;6.010;2022-10-31T00:50:37;101904.22;;;18.95;61.66
70976;BME280;58635;51.198;6.010;2022-10-31T00:53:03;101896.78;;;18.92;61.69
70976;BME280;58635;51.198;6.010;2022-10-31T00:55:29;101899.63;;;18.90;61.66
70976;BME280;58635;51.198;6.010;2022-10-31T00:57:54;101891.19;;;18.88;61.48
70976;BME280;58635;51.198;6.010;2022-10-31T01:00:20;101900.09;;;18.87;61.89
70976;BME280;58635;51.198;6.010;2022-10-31T01:02:45;101899.72;;;18.84;61.75
70976;BME280;58635;51.198;6.010;2022-10-31T01:05:10;101903.56;;;18.81;61.52
70976;BME280;58635;51.198;6.010;2022-10-31T01:07:39;101908.22;;;18.79;61.59
70976;BME280;58635;51.198;6.010;2022-10-31T01:10:06;101913.69;;;18.78;61.61
70976;BME280;58635;51.198;6.010;2022-10-31T01:12:43;101910.50;;;18.76;61.81
70976;BME280;58635;51.198;6.010;2022-10-31T01:15:11;101919.63;;;18.73;61.93
70976;BME280;58635;51.198;6.010;2022-10-31T01:17:38;101914.59;;;18.72;61.91
70976;BME280;58635;51.198;6.010;2022-10-31T01:20:04;101901.69;;;18.70;61.68
70976;BME280;58635;51.198;6.010;2022-10-31T01:22:31;101901.09;;;18.68;62.07
70976;BME280;58635;51.198;6.010;2022-10-31T01:24:56;101907.38;;;18.67;61.92
70976;BME280;58635;51.198;6.010;2022-10-31T01:27:22;101903.56;;;18.63;62.00
70976;BME280;58635;51.198;6.010;2022-10-31T01:29:47;101913.47;;;18.61;61.97
70976;BME280;58635;51.198;6.010;2022-10-31T01:32:13;101917.91;;;18.60;62.19
70976;BME280;58635;51.198;6.010;2022-10-31T01:34:38;101910.28;;;18.59;61.88
70976;BME280;58635;51.198;6.010;2022-10-31T01:37:04;101905.22;;;18.57;62.22
70976;BME280;58635;51.198;6.010;2022-10-31T01:39:29;101907.84;;;18.57;61.94
70976;BME280;58635;51.198;6.010;2022-10-31T01:41:55;101911.50;;;18.56;61.82
70976;BME280;58635;51.198;6.010;2022-10-31T01:46:50;101909.09;;;18.55;61.86
70976;BME280;58635;51.198;6.010;2022-10-31T01:49:22;101917.19;;;18.53;62.02
70976;BME280;58635;51.198;6.010;2022-10-31T01:52:01;101901.09;;;18.50;61.88
70976;BME280;58635;51.198;6.010;2022-10-31T01:54:33;101906.56;;;18.48;62.00
70976;BME280;58635;51.198;6.010;2022-10-31T01:57:00;101898.91;;;18.47;61.97
70976;BME280;58635;51.198;6.010;2022-10-31T01:59:30;101899.91;;;18.46;61.87
70976;BME280;58635;51.198;6.010;2022-10-31T02:01:57;101897.53;;;18.44;62.25
70976;BME280;58635;51.198;6.010;2022-10-31T02:04:24;101892.72;;;18.41;62.07
70976;BME280;58635;51.198;6.010;2022-10-31T02:07:09;101892.72;;;18.41;62.07
70976;BME280;58635;51.198;6.010;2022-10-31T02:09:36;101886.09;;;18.38;62.09
70976;BME280;58635;51.198;6.010;2022-10-31T02:12:03;101887.13;;;18.37;62.17
70976;BME280;58635;51.198;6.010;2022-10-31T02:14:30;101879.69;;;18.34;62.37
70976;BME280;58635;51.198;6.010;2022-10-31T02:16:57;101880.13;;;18.31;62.46
70976;BME280;58635;51.198;6.010;2022-10-31T02:22:24;101887.28;;;18.24;62.23
70976;BME280;58635;51.198;6.010;2022-10-31T02:25:08;101882.44;;;18.21;62.59
70976;BME280;58635;51.198;6.010;2022-10-31T02:27:54;101889.50;;;18.21;62.64
70976;BME280;58635;51.198;6.010;2022-10-31T02:31:23;101878.66;;;18.17;62.77
70976;BME280;58635;51.198;6.010;2022-10-31T02:33:39;101885.16;;;18.15;62.53
70976;BME280;58635;51.198;6.010;2022-10-31T02:36:15;101885.16;;;18.15;62.47
70976;BME280;58635;51.198;6.010;2022-10-31T02:44:25;101887.38;;;18.11;62.82
70976;BME280;58635;51.198;6.010;2022-10-31T02:47:11;101880.53;;;18.10;62.54
70976;BME280;58635;51.198;6.010;2022-10-31T02:52:35;101885.41;;;18.06;62.62
70976;BME280;58635;51.198;6.010;2022-10-31T02:55:41;101882.22;;;18.04;62.79
70976;BME280;58635;51.198;6.010;2022-10-31T03:00:30;101887.28;;;17.99;62.60
70976;BME280;58635;51.198;6.010;2022-10-31T03:03:08;101887.50;;;17.98;62.64
70976;BME280;58635;51.198;6.010;2022-10-31T03:08:25;101878.72;;;17.92;62.59
70976;BME280;58635;51.198;6.010;2022-10-31T03:10:58;101875.50;;;17.90;62.78
70976;BME280;58635;51.198;6.010;2022-10-31T03:16:23;101882.97;;;17.87;62.83
70976;BME280;58635;51.198;6.010;2022-10-31T03:19:22;101891.84;;;17.86;62.72
70976;BME280;58635;51.198;6.010;2022-10-31T03:21:55;101884.41;;;17.82;62.60
70976;BME280;58635;51.198;6.010;2022-10-31T03:24:25;101883.84;;;17.80;62.61
70976;BME280;58635;51.198;6.010;2022-10-31T03:26:53;101883.84;;;17.80;62.81
70976;BME280;58635;51.198;6.010;2022-10-31T03:29:23;101885.66;;;17.80;62.61
70976;BME280;58635;51.198;6.010;2022-10-31T03:32:00;101879.63;;;17.79;62.65
70976;BME280;58635;51.198;6.010;2022-10-31T03:34:28;101871.19;;;17.77;63.02
70976;BME280;58635;51.198;6.010;2022-10-31T03:36:57;101864.53;;;17.75;62.78
70976;BME280;58635;51.198;6.010;2022-10-31T03:39:25;101862.94;;;17.74;62.73
70976;BME280;58635;51.198;6.010;2022-10-31T03:42:00;101850.88;;;17.73;62.88
70976;BME280;58635;51.198;6.010;2022-10-31T03:44:29;101858.16;;;17.71;62.91
70976;BME280;58635;51.198;6.010;2022-10-31T03:46:56;101861.78;;;17.70;62.63
70976;BME280;58635;51.198;6.010;2022-10-31T03:49:22;101849.50;;;17.70;63.07
70976;BME280;58635;51.198;6.010;2022-10-31T03:51:59;101853.72;;;17.71;62.97
70976;BME280;58635;51.198;6.010;2022-10-31T03:54:54;101851.72;;;17.67;63.01
70976;BME280;58635;51.198;6.010;2022-10-31T04:00:04;101845.50;;;17.61;62.88
70976;BME280;58635;51.198;6.010;2022-10-31T04:02:30;101854.44;;;17.53;62.97
70976;BME280;58635;51.198;6.010;2022-10-31T04:04:58;101852.78;;;17.59;63.06
70976;BME280;58635;51.198;6.010;2022-10-31T04:07:27;101863.81;;;17.61;63.08
70976;BME280;58635;51.198;6.010;2022-10-31T04:09:55;101865.84;;;17.59;63.18
70976;BME280;58635;51.198;6.010;2022-10-31T04:12:23;101862.00;;;17.62;63.27
70976;BME280;58635;51.198;6.010;2022-10-31T04:14:50;101867.25;;;17.62;63.06
70976;BME280;58635;51.198;6.010;2022-10-31T04:17:21;101868.84;;;17.63;63.18
70976;BME280;58635;51.198;6.010;2022-10-31T04:19:47;101871.69;;;17.61;63.02
70976;BME280;58635;51.198;6.010;2022-10-31T04:22:13;101871.88;;;17.60;63.36
70976;BME280;58635;51.198;6.010;2022-10-31T04:24:39;101872.91;;;17.59;63.39
70976;BME280;58635;51.198;6.010;2022-10-31T04:27:05;101870.50;;;17.57;63.02
70976;BME280;58635;51.198;6.010;2022-10-31T04:29:30;101869.94;;;17.55;63.25
70976;BME280;58635;51.198;6.010;2022-10-31T04:31:56;101865.94;;;17.52;63.24
70976;BME280;58635;51.198;6.010;2022-10-31T04:34:21;101857.25;;;17.52;63.52
70976;BME280;58635;51.198;6.010;2022-10-31T04:36:46;101858.47;;;17.49;63.42
70976;BME280;58635;51.198;6.010;2022-10-31T04:39:12;101863.13;;;17.47;63.13
70976;BME280;58635;51.198;6.010;2022-10-31T04:41:37;101865.16;;;17.45;63.38
70976;BME280;58635;51.198;6.010;2022-10-31T04:44:02;101861.97;;;17.43;63.09
70976;BME280;58635;51.198;6.010;2022-10-31T04:46:28;101867.41;;;17.42;63.09
70976;BME280;58635;51.198;6.010;2022-10-31T04:48:53;101869.41;;;17.40;62.94
70976;BME280;58635;51.198;6.010;2022-10-31T04:51:19;101871.22;;;17.39;63.22
70976;BME280;58635;51.198;6.010;2022-10-31T04:53:44;101868.81;;;17.38;63.27
70976;BME280;58635;51.198;6.010;2022-10-31T04:56:09;101865.63;;;17.36;63.12
70976;BME280;58635;51.198;6.010;2022-10-31T04:58:35;101866.66;;;17.35;63.07
70976;BME280;58635;51.198;6.010;2022-10-31T05:01:00;101866.84;;;17.33;63.34
70976;BME280;58635;51.198;6.010;2022-10-31T05:03:25;101864.47;;;17.32;63.02
70976;BME280;58635;51.198;6.010;2022-10-31T05:05:51;101858.66;;;17.30;63.33
70976;BME280;58635;51.198;6.010;2022-10-31T05:08:16;101855.41;;;17.28;62.95
70976;BME280;58635;51.198;6.010;2022-10-31T05:10:42;101854.81;;;17.25;63.68
70976;BME280;58635;51.198;6.010;2022-10-31T05:13:07;101845.38;;;17.24;63.28
70976;BME280;58635;51.198;6.010;2022-10-31T05:15:33;101834.34;;;17.22;63.09
70976;BME280;58635;51.198;6.010;2022-10-31T05:17:58;101835.34;;;17.21;63.05
70976;BME280;58635;51.198;6.010;2022-10-31T05:20:26;101843.63;;;17.18;63.32
70976;BME280;58635;51.198;6.010;2022-10-31T05:22:54;101828.16;;;17.17;62.96
70976;BME280;58635;51.198;6.010;2022-10-31T05:25:21;101819.69;;;17.15;63.12
70976;BME280;58635;51.198;6.010;2022-10-31T05:27:48;101830.59;;;17.12;63.01
70976;BME280;58635;51.198;6.010;2022-10-31T05:30:20;101832.63;;;17.10;63.22
70976;BME280;58635;51.198;6.010;2022-10-31T05:32:48;101829.41;;;17.08;62.81
70976;BME280;58635;51.198;6.010;2022-10-31T05:35:20;101825.59;;;17.04;62.84
70976;BME280;58635;51.198;6.010;2022-10-31T05:37:46;101826.03;;;17.01;62.97
70976;BME280;58635;51.198;6.010;2022-10-31T05:40:13;101825.22;;;17.00;63.18
70976;BME280;58635;51.198;6.010;2022-10-31T05:42:40;101830.88;;;16.97;62.97
70976;BME280;58635;51.198;6.010;2022-10-31T05:45:07;101836.13;;;16.97;63.25
70976;BME280;58635;51.198;6.010;2022-10-31T05:47:33;101828.47;;;16.95;63.28
70976;BME280;58635;51.198;6.010;2022-10-31T05:49:59;101832.09;;;16.94;63.15
70976;BME280;58635;51.198;6.010;2022-10-31T05:52:24;101836.72;;;16.92;63.17
70976;BME280;58635;51.198;6.010;2022-10-31T05:54:49;101844.78;;;16.91;63.29
70976;BME280;58635;51.198;6.010;2022-10-31T05:57:15;101828.50;;;16.89;63.14
70976;BME280;58635;51.198;6.010;2022-10-31T05:59:40;101827.13;;;16.86;62.85
70976;BME280;58635;51.198;6.010;2022-10-31T06:02:05;101823.91;;;16.84;62.94
70976;BME280;58635;51.198;6.010;2022-10-31T06:04:31;101821.53;;;16.83;63.20
70976;BME280;58635;51.198;6.010;2022-10-31T06:06:57;101816.50;;;16.81;63.03
70976;BME280;58635;51.198;6.010;2022-10-31T06:09:22;101808.06;;;16.79;63.29
70976;BME280;58635;51.198;6.010;2022-10-31T06:11:47;101813.50;;;16.78;62.99
70976;BME280;58635;51.198;6.010;2022-10-31T06:14:13;101810.28;;;16.76;63.25
70976;BME280;58635;51.198;6.010;2022-10-31T06:16:38;101812.31;;;16.74;63.00
70976;BME280;58635;51.198;6.010;2022-10-31T06:19:03;101815.13;;;16.72;63.00
70976;BME280;58635;51.198;6.010;2022-10-31T06:21:29;101811.94;;;16.70;63.08
70976;BME280;58635;51.198;6.010;2022-10-31T06:23:54;101813.75;;;16.70;63.08
70976;BME280;58635;51.198;6.010;2022-10-31T06:26:20;101821.59;;;16.70;63.17
70976;BME280;58635;51.198;6.010;2022-10-31T06:28:45;101815.53;;;16.69;63.09
70976;BME280;58635;51.198;6.010;2022-10-31T06:31:10;101819.97;;;16.69;63.29
70976;BME280;58635;51.198;6.010;2022-10-31T06:33:36;101812.31;;;16.67;63.20
70976;BME280;58635;51.198;6.010;2022-10-31T06:36:02;101816.72;;;16.66;63.21
70976;BME280;58635;51.198;6.010;2022-10-31T06:38:27;101821.94;;;16.66;63.04
70976;BME280;58635;51.198;6.010;2022-10-31T06:40:54;101823.75;;;16.66;63.02
70976;BME280;58635;51.198;6.010;2022-10-31T06:43:20;101813.53;;;16.64;63.22
70976;BME280;58635;51.198;6.010;2022-10-31T06:45:46;101819.56;;;16.65;63.14
70976;BME280;58635;51.198;6.010;2022-10-31T06:48:11;101818.75;;;16.64;63.16
70976;BME280;58635;51.198;6.010;2022-10-31T06:50:37;101821.38;;;16.64;63.20
70976;BME280;58635;51.198;6.010;2022-10-31T06:53:02;101815.94;;;16.66;63.36
70976;BME280;58635;51.198;6.010;2022-10-31T06:55:28;101810.53;;;16.67;63.62
70976;BME280;58635;51.198;6.010;2022-10-31T06:57:55;101811.31;;;16.68;63.21
70976;BME280;58635;51.198;6.010;2022-10-31T07:00:21;101806.09;;;16.68;63.41
70976;BME280;58635;51.198;6.010;2022-10-31T07:03:04;101809.50;;;16.69;63.33
70976;BME280;58635;51.198;6.010;2022-10-31T07:05:30;101819.16;;;16.68;63.34
70976;BME280;58635;51.198;6.010;2022-10-31T07:08:00;101809.50;;;16.69;63.26
70976;BME280;58635;51.198;6.010;2022-10-31T07:10:28;101812.91;;;16.69;63.53
70976;BME280;58635;51.198;6.010;2022-10-31T07:12:55;101824.38;;;16.68;63.23
70976;BME280;58635;51.198;6.010;2022-10-31T07:15:21;101821.59;;;16.70;63.24
70976;BME280;58635;51.198;6.010;2022-10-31T07:17:47;101821.78;;;16.68;63.24
70976;BME280;58635;51.198;6.010;2022-10-31T07:20:12;101822.56;;;16.69;63.48
70976;BME280;58635;51.198;6.010;2022-10-31T07:22:38;101834.66;;;16.70;63.49
70976;BME280;58635;51.198;6.010;2022-10-31T07:25:04;101825.00;;;16.70;63.28
70976;BME280;58635;51.198;6.010;2022-10-31T07:27:36;101824.00;;;16.71;63.56
70976;BME280;58635;51.198;6.010;2022-10-31T07:30:02;101821.97;;;16.73;63.56
70976;BME280;58635;51.198;6.010;2022-10-31T07:32:27;101817.31;;;16.75;63.59
70976;BME280;58635;51.198;6.010;2022-10-31T07:34:53;101823.94;;;16.78;63.58
70976;BME280;58635;51.198;6.010;2022-10-31T07:37:18;101823.72;;;16.79;63.33
70976;BME280;58635;51.198;6.010;2022-10-31T07:39:43;101827.94;;;16.80;63.43
70976;BME280;58635;51.198;6.010;2022-10-31T07:42:09;101827.94;;;16.80;63.71
70976;BME280;58635;51.198;6.010;2022-10-31T07:44:34;101827.75;;;16.82;63.51
70976;BME280;58635;51.198;6.010;2022-10-31T07:46:59;101832.97;;;16.82;63.73
70976;BME280;58635;51.198;6.010;2022-10-31T07:49:25;101828.56;;;16.82;63.59
70976;BME280;58635;51.198;6.010;2022-10-31T07:51:50;101833.56;;;16.84;63.52
70976;BME280;58635;51.198;6.010;2022-10-31T07:54:16;101837.78;;;16.85;63.27
70976;BME280;58635;51.198;6.010;2022-10-31T07:56:41;101832.34;;;16.86;63.36
70976;BME280;58635;51.198;6.010;2022-10-31T07:59:07;101828.72;;;16.87;63.42
70976;BME280;58635;51.198;6.010;2022-10-31T08:01:32;101821.69;;;16.88;63.70
70976;BME280;58635;51.198;6.010;2022-10-31T08:03:57;101821.03;;;16.92;63.38
70976;BME280;58635;51.198;6.010;2022-10-31T08:06:23;101829.28;;;16.96;63.77
70976;BME280;58635;51.198;6.010;2022-10-31T08:08:48;101838.88;;;17.02;63.88
70976;BME280;58635;51.198;6.010;2022-10-31T08:11:13;101842.84;;;17.11;63.52
70976;BME280;58635;51.198;6.010;2022-10-31T08:13:39;101850.25;;;17.21;63.54
70976;BME280;58635;51.198;6.010;2022-10-31T08:16:05;101848.97;;;17.30;63.80
70976;BME280;58635;51.198;6.010;2022-10-31T08:18:32;101839.84;;;17.39;63.82
70976;BME280;58635;51.198;6.010;2022-10-31T08:20:58;101835.38;;;17.46;64.04
70976;BME280;58635;51.198;6.010;2022-10-31T08:23:23;101830.91;;;17.53;63.53
70976;BME280;58635;51.198;6.010;2022-10-31T08:25:48;101826.03;;;17.57;64.11
70976;BME280;58635;51.198;6.010;2022-10-31T08:28:14;101822.97;;;17.60;64.24
70976;BME280;58635;51.198;6.010;2022-10-31T08:30:40;101820.53;;;17.65;64.05
70976;BME280;58635;51.198;6.010;2022-10-31T08:33:09;101822.53;;;17.70;64.15
70976;BME280;58635;51.198;6.010;2022-10-31T08:35:35;101816.66;;;17.74;64.00
70976;BME280;58635;51.198;6.010;2022-10-31T08:38:00;101807.16;;;17.80;64.17
70976;BME280;58635;51.198;6.010;2022-10-31T08:40:28;101807.50;;;17.83;63.91
70976;BME280;58635;51.198;6.010;2022-10-31T08:43:01;101809.28;;;17.90;64.18
70976;BME280;58635;51.198;6.010;2022-10-31T08:45:28;101808.25;;;17.91;64.11
70976;BME280;58635;51.198;6.010;2022-10-31T08:48:03;101796.53;;;17.93;64.16
70976;BME280;58635;51.198;6.010;2022-10-31T08:50:31;101796.09;;;17.96;63.74
70976;BME280;58635;51.198;6.010;2022-10-31T08:53:05;101793.66;;;18.01;63.84
70976;BME280;58635;51.198;6.010;2022-10-31T08:55:32;101784.19;;;18.00;64.07
70976;BME280;58635;51.198;6.010;2022-10-31T08:57:58;101777.16;;;18.01;64.21
70976;BME280;58635;51.198;6.010;2022-10-31T09:00:24;101777.94;;;18.01;64.46
70976;BME280;58635;51.198;6.010;2022-10-31T09:03:00;101774.88;;;18.04;63.97
70976;BME280;58635;51.198;6.010;2022-10-31T09:05:27;101768.97;;;18.09;64.04
70976;BME280;58635;51.198;6.010;2022-10-31T09:07:59;101768.13;;;18.15;64.02
70976;BME280;58635;51.198;6.010;2022-10-31T09:10:26;101765.63;;;18.20;63.64
70976;BME280;58635;51.198;6.010;2022-10-31T09:12:59;101757.94;;;18.25;64.03
70976;BME280;58635;51.198;6.010;2022-10-31T09:15:26;101757.03;;;18.31;63.98
70976;BME280;58635;51.198;6.010;2022-10-31T09:17:52;101754.56;;;18.36;63.85
70976;BME280;58635;51.198;6.010;2022-10-31T09:20:17;101753.31;;;18.39;64.14
70976;BME280;58635;51.198;6.010;2022-10-31T09:22:43;101753.44;;;18.44;64.10
70976;BME280;58635;51.198;6.010;2022-10-31T09:25:09;101746.75;;;18.48;64.14
70976;BME280;58635;51.198;6.010;2022-10-31T09:27:34;101745.06;;;18.54;63.92
70976;BME280;58635;51.198;6.010;2022-10-31T09:30:00;101741.75;;;18.58;64.52
70976;BME280;58635;51.198;6.010;2022-10-31T09:32:25;101735.06;;;18.62;63.87
70976;BME280;58635;51.198;6.010;2022-10-31T09:34:50;101732.81;;;18.66;63.98
70976;BME280;58635;51.198;6.010;2022-10-31T09:37:16;101732.59;;;18.67;63.95
70976;BME280;58635;51.198;6.010;2022-10-31T09:39:41;101728.06;;;18.75;63.97
70976;BME280;58635;51.198;6.010;2022-10-31T09:44:58;101732.88;;;18.89;63.77
70976;BME280;58635;51.198;6.010;2022-10-31T09:47:31;101728.56;;;18.95;63.64
70976;BME280;58635;51.198;6.010;2022-10-31T09:50:22;101731.53;;;18.98;63.39
70976;BME280;58635;51.198;6.010;2022-10-31T09:52:58;101720.81;;;19.00;63.50
70976;BME280;58635;51.198;6.010;2022-10-31T09:55:31;101721.38;;;19.02;63.65
70976;BME280;58635;51.198;6.010;2022-10-31T09:58:00;101715.91;;;19.04;63.54
70976;BME280;58635;51.198;6.010;2022-10-31T10:00:26;101708.63;;;19.06;63.25
70976;BME280;58635;51.198;6.010;2022-10-31T10:03:52;101702.94;;;19.09;63.05
70976;BME280;58635;51.198;6.010;2022-10-31T10:06:00;101701.78;;;19.16;63.06
70976;BME280;58635;51.198;6.010;2022-10-31T10:08:30;101693.81;;;19.23;62.77
70976;BME280;58635;51.198;6.010;2022-10-31T10:13:47;101689.59;;;19.34;62.72
70976;BME280;58635;51.198;6.010;2022-10-31T10:16:53;101681.03;;;19.38;61.92
70976;BME280;58635;51.198;6.010;2022-10-31T10:19:38;101677.03;;;19.36;62.29
70976;BME280;58635;51.198;6.010;2022-10-31T10:24:57;101660.16;;;19.43;61.59
70976;BME280;58635;51.198;6.010;2022-10-31T10:28:19;101638.72;;;19.46;61.33
70976;BME280;58635;51.198;6.010;2022-10-31T10:30:54;101633.56;;;19.51;61.07
70976;BME280;58635;51.198;6.010;2022-10-31T10:33:30;101633.69;;;19.56;61.24
70976;BME280;58635;51.198;6.010;2022-10-31T10:35:59;101634.34;;;19.64;61.04
70976;BME280;58635;51.198;6.010;2022-10-31T10:40:54;101664.47;;;19.73;60.67
70976;BME280;58635;51.198;6.010;2022-10-31T10:43:36;101670.38;;;19.80;60.73
70976;BME280;58635;51.198;6.010;2022-10-31T10:51:55;101657.41;;;20.02;60.01
70976;BME280;58635;51.198;6.010;2022-10-31T10:54:41;101653.16;;;20.01;59.76
70976;BME280;58635;51.198;6.010;2022-10-31T10:59:34;101654.00;;;20.01;59.82
70976;BME280;58635;51.198;6.010;2022-10-31T11:02:00;101664.03;;;20.04;59.79
70976;BME280;58635;51.198;6.010;2022-10-31T11:04:33;101654.16;;;20.11;59.73
70976;BME280;58635;51.198;6.010;2022-10-31T11:07:08;101655.59;;;20.19;59.33
70976;BME280;58635;51.198;6.010;2022-10-31T11:09:35;101639.94;;;20.24;59.37
70976;BME280;58635;51.198;6.010;2022-10-31T11:14:47;101626.16;;;20.34;58.75
70976;BME280;58635;51.198;6.010;2022-10-31T11:17:40;101624.69;;;20.38;58.40
70976;BME280;58635;51.198;6.010;2022-10-31T11:20:25;101611.84;;;20.41;58.41
70976;BME280;58635;51.198;6.010;2022-10-31T11:23:01;101620.63;;;20.47;58.41
70976;BME280;58635;51.198;6.010;2022-10-31T11:25:27;101615.16;;;20.49;58.54
70976;BME280;58635;51.198;6.010;2022-10-31T11:28:04;101604.72;;;20.54;58.31
70976;BME280;58635;51.198;6.010;2022-10-31T11:30:35;101606.06;;;20.56;58.45
70976;BME280;58635;51.198;6.010;2022-10-31T11:33:16;101599.31;;;20.60;58.41
70976;BME280;58635;51.198;6.010;2022-10-31T11:35:43;101589.66;;;20.66;58.10
70976;BME280;58635;51.198;6.010;2022-10-31T11:38:17;101582.63;;;20.71;57.72
70976;BME280;58635;51.198;6.010;2022-10-31T11:41:08;101580.63;;;20.79;57.32
70976;BME280;58635;51.198;6.010;2022-10-31T11:43:35;101569.97;;;20.85;57.47
70976;BME280;58635;51.198;6.010;2022-10-31T11:46:09;101562.94;;;20.91;56.84
70976;BME280;58635;51.198;6.010;2022-10-31T11:48:35;101558.72;;;20.90;56.93
70976;BME280;58635;51.198;6.010;2022-10-31T11:51:02;101564.03;;;20.95;56.87
70976;BME280;58635;51.198;6.010;2022-10-31T11:53:30;101563.59;;;21.03;56.71
70976;BME280;58635;51.198;6.010;2022-10-31T11:56:16;101558.66;;;21.07;56.31
70976;BME280;58635;51.198;6.010;2022-10-31T11:58:42;101546.88;;;21.09;56.23
70976;BME280;58635;51.198;6.010;2022-10-31T12:01:25;101542.69;;;21.13;56.08
70976;BME280;58635;51.198;6.010;2022-10-31T12:08:52;101516.22;;;21.20;55.93
70976;BME280;58635;51.198;6.010;2022-10-31T12:16:45;101494.75;;;21.28;55.77
70976;BME280;58635;51.198;6.010;2022-10-31T12:28:00;101483.03;;;21.41;55.50
70976;BME280;58635;51.198;6.010;2022-10-31T12:38:34;101448.91;;;21.51;55.51
70976;BME280;58635;51.198;6.010;2022-10-31T12:41:10;101429.69;;;21.50;55.06
70976;BME280;58635;51.198;6.010;2022-10-31T12:43:48;101426.00;;;21.46;55.29
70976;BME280;58635;51.198;6.010;2022-10-31T12:52:23;101408.53;;;21.35;55.23
70976;BME280;58635;51.198;6.010;2022-10-31T12:55:08;101401.97;;;21.38;55.57
70976;BME280;58635;51.198;6.010;2022-10-31T12:57:58;101400.41;;;21.42;55.57
70976;BME280;58635;51.198;6.010;2022-10-31T13:00:26;101390.44;;;21.44;55.43
70976;BME280;58635;51.198;6.010;2022-10-31T13:02:59;101395.72;;;21.44;55.40
70976;BME280;58635;51.198;6.010;2022-10-31T13:08:03;101389.44;;;21.50;55.12
70976;BME280;58635;51.198;6.010;2022-10-31T13:10:44;101383.13;;;21.51;55.08
70976;BME280;58635;51.198;6.010;2022-10-31T13:13:19;101379.16;;;21.48;55.37
70976;BME280;58635;51.198;6.010;2022-10-31T13:15:59;101375.22;;;21.51;55.17
70976;BME280;58635;51.198;6.010;2022-10-31T13:18:44;101369.41;;;21.49;54.96
70976;BME280;58635;51.198;6.010;2022-10-31T13:21:17;101356.78;;;21.51;55.07
70976;BME280;58635;51.198;6.010;2022-10-31T13:23:44;101347.84;;;21.52;54.92
70976;BME280;58635;51.198;6.010;2022-10-31T13:26:20;101342.34;;;21.53;54.77
70976;BME280;58635;51.198;6.010;2022-10-31T13:31:20;101342.63;;;21.57;54.76
70976;BME280;58635;51.198;6.010;2022-10-31T13:33:49;101343.72;;;21.61;54.80
70976;BME280;58635;51.198;6.010;2022-10-31T13:38:51;101328.53;;;21.73;54.63
70976;BME280;58635;51.198;6.010;2022-10-31T13:44:22;101311.47;;;21.81;54.55
70976;BME280;58635;51.198;6.010;2022-10-31T13:46:52;101315.38;;;21.78;54.76
70976;BME280;58635;51.198;6.010;2022-10-31T13:52:25;101294.03;;;21.75;54.10
70976;BME280;58635;51.198;6.010;2022-10-31T13:54:52;101298.25;;;21.76;54.16
70976;BME280;58635;51.198;6.010;2022-10-31T13:57:43;101288.22;;;21.73;53.86
70976;BME280;58635;51.198;6.010;2022-10-31T14:02:56;101271.66;;;21.72;53.89
70976;BME280;58635;51.198;6.010;2022-10-31T14:05:32;101277.44;;;21.74;53.66
70976;BME280;58635;51.198;6.010;2022-10-31T14:08:02;101263.75;;;21.77;53.72
70976;BME280;58635;51.198;6.010;2022-10-31T14:10:31;101254.03;;;21.78;53.94
70976;BME280;58635;51.198;6.010;2022-10-31T14:13:07;101248.25;;;21.81;53.56
70976;BME280;58635;51.198;6.010;2022-10-31T14:15:36;101243.28;;;21.84;53.42
70976;BME280;58635;51.198;6.010;2022-10-31T14:18:05;101240.63;;;21.84;53.17
70976;BME280;58635;51.198;6.010;2022-10-31T14:20:37;101240.09;;;21.82;53.08
70976;BME280;58635;51.198;6.010;2022-10-31T14:23:12;101236.91;;;21.75;53.11
70976;BME280;58635;51.198;6.010;2022-10-31T14:25:37;101236.88;;;21.70;53.15
70976;BME280;58635;51.198;6.010;2022-10-31T14:28:22;101236.84;;;21.65;53.07
70976;BME280;58635;51.198;6.010;2022-10-31T14:30:57;101236.31;;;21.63;53.22
70976;BME280;58635;51.198;6.010;2022-10-31T14:33:26;101242.63;;;21.62;53.26
70976;BME280;58635;51.198;6.010;2022-10-31T14:36:06;101242.09;;;21.60;52.79
70976;BME280;58635;51.198;6.010;2022-10-31T14:46:54;101229.41;;;21.47;53.22
70976;BME280;58635;51.198;6.010;2022-10-31T14:52:18;101220.91;;;21.40;53.10